Bookmark and Share
Track history (hours):
 

Gamle Salten

Last reported at 2014-Apr-10 17:05 UTC. Time now 2014-Apr-20 09:00 UTC.
Position N 66°04' E 012°38'.
Warning: this ship's position is 9 days out of date.

Length 48 m; draft 5 m.

Type: Passenger vessel. MMSI: 258178000.

NotesDate/timePositionNaut miles runAvg speedWind from/ knotsBaromVisibWave heightAir tempDewpointWater temp
2014-Apr-10 17:05N 66°04' E 012°38'15 8.9
2014-Apr-10 15:25N 66°17' E 012°55'8 8.8
2014-Apr-10 14:33N 66°24' E 012°58'11 8.4
2014-Apr-10 13:12N 66°35' E 013°04'25 8.6
2014-Apr-10 10:18N 66°58' E 013°32'16 9.2
2014-Apr-10 08:32N 67°09' E 014°02'9 9.4
2014-Apr-10 07:33N 67°16' E 014°18'2 2.3
2014-Apr-10 06:31N 67°17' E 014°23'0 0.0
2014-Apr-10 05:31N 67°17' E 014°23'0 0.0
2014-Apr-10 04:30N 67°17' E 014°23'0 0.0
2014-Apr-10 03:32N 67°17' E 014°23'0 0.0
2014-Apr-10 02:32N 67°17' E 014°23'0 0.0
2014-Apr-10 01:31N 67°17' E 014°23'0 0.0
2014-Apr-10 00:31N 67°17' E 014°23'0 0.0
2014-Apr-09 23:33N 67°17' E 014°23'0 0.0
2014-Apr-09 22:32N 67°17' E 014°23'0 0.0
2014-Apr-09 21:32N 67°17' E 014°23'0 0.0
2014-Apr-09 20:31N 67°17' E 014°23'0 0.0
2014-Apr-09 19:31N 67°17' E 014°23'0 0.0
2014-Apr-09 18:33N 67°17' E 014°23'0 0.0
2014-Apr-09 17:32N 67°17' E 014°23'0 0.0
2014-Apr-09 16:32N 67°17' E 014°23'0 0.0
2014-Apr-09 15:31N 67°17' E 014°23'0 0.0
2014-Apr-09 14:31N 67°17' E 014°23'0 0.0
2014-Apr-09 13:33N 67°17' E 014°23'0 0.0
2014-Apr-09 12:31N 67°17' E 014°23'0 0.0
2014-Apr-09 11:32N 67°17' E 014°23'0 0.0
2014-Apr-09 10:31N 67°17' E 014°23'0 0.0
2014-Apr-09 09:33N 67°17' E 014°23'0 0.0
2014-Apr-09 08:33N 67°17' E 014°23'0 0.0
2014-Apr-09 07:32N 67°17' E 014°23'0 0.0
2014-Apr-09 06:32N 67°17' E 014°23'0 0.0
2014-Apr-09 05:31N 67°17' E 014°23'0 0.0
2014-Apr-09 04:33N 67°17' E 014°23'0 0.0
2014-Apr-09 03:30N 67°17' E 014°23'0 0.0
2014-Apr-09 02:32N 67°17' E 014°23'0 0.0
2014-Apr-09 01:32N 67°17' E 014°23'0 0.0
2014-Apr-09 00:31N 67°17' E 014°23'0 0.0
2014-Apr-08 23:33N 67°17' E 014°23'0 0.0
2014-Apr-08 22:33N 67°17' E 014°23'0 0.0
2014-Apr-08 21:32N 67°17' E 014°23'0 0.0
2014-Apr-08 20:32N 67°17' E 014°23'0 0.0
2014-Apr-08 19:31N 67°17' E 014°23'0 0.0
2014-Apr-08 18:33N 67°17' E 014°23'0 0.0
2014-Apr-08 17:33N 67°17' E 014°23'0 0.0
2014-Apr-08 16:26N 67°17' E 014°23'0 0.0
2014-Apr-08 15:32N 67°17' E 014°23'0 0.0
2014-Apr-08 14:31N 67°17' E 014°23'0 0.0
2014-Apr-08 13:33N 67°17' E 014°23'0 0.0
2014-Apr-08 12:27N 67°17' E 014°23'0 0.0
2014-Apr-08 11:32N 67°17' E 014°23'0 0.0
2014-Apr-08 10:28N 67°17' E 014°23'0 0.0
2014-Apr-08 09:33N 67°17' E 014°23'0 0.0
2014-Apr-08 08:33N 67°17' E 014°23'0 0.0
2014-Apr-08 07:32N 67°17' E 014°23'0 0.0
2014-Apr-08 06:32N 67°17' E 014°23'0 0.0
2014-Apr-08 05:28N 67°17' E 014°23'0 0.0
2014-Apr-08 04:33N 67°17' E 014°23'0 0.0
2014-Apr-08 03:33N 67°17' E 014°23'0 0.0
2014-Apr-08 02:32N 67°17' E 014°23'0 0.0
2014-Apr-08 01:32N 67°17' E 014°23'0 0.0
2014-Apr-08 00:31N 67°17' E 014°23'0 0.0
2014-Apr-07 23:33N 67°17' E 014°23'0 0.0
2014-Apr-07 22:33N 67°17' E 014°23'0 0.0
2014-Apr-07 21:32N 67°17' E 014°23'0 0.0
2014-Apr-07 20:32N 67°17' E 014°23'0 0.0
2014-Apr-07 19:31N 67°17' E 014°23'0 0.0
2014-Apr-07 17:30N 67°17' E 014°23'0 0.0
2014-Apr-07 16:29N 67°17' E 014°23'0 0.0
2014-Apr-07 15:31N 67°17' E 014°23'0 0.0
2014-Apr-07 14:31N 67°17' E 014°23'0 0.0
2014-Apr-07 13:33N 67°17' E 014°23'0 0.0
2014-Apr-07 12:33N 67°17' E 014°23'0 0.0
2014-Apr-07 11:31N 67°17' E 014°23'0 0.0
2014-Apr-07 10:33N 67°17' E 014°23'0 0.0
2014-Apr-07 09:33N 67°17' E 014°23'0 0.0
2014-Apr-07 08:32N 67°17' E 014°23'0 0.0
2014-Apr-07 07:32N 67°17' E 014°23'0 0.0
2014-Apr-07 06:31N 67°17' E 014°23'0 0.0
2014-Apr-07 05:31N 67°17' E 014°23'0 0.0
2014-Apr-07 04:30N 67°17' E 014°23'0 0.0
2014-Apr-07 03:32N 67°17' E 014°23'0 0.0
2014-Apr-07 02:32N 67°17' E 014°23'0 0.0
2014-Apr-07 01:31N 67°17' E 014°23'0 0.0
2014-Apr-07 00:27N 67°17' E 014°23'0 0.0
2014-Apr-06 23:33N 67°17' E 014°23'0 0.0
2014-Apr-06 22:32N 67°17' E 014°23'0 0.0
2014-Apr-06 21:32N 67°17' E 014°23'0 0.0
2014-Apr-06 20:31N 67°17' E 014°23'0 0.0
2014-Apr-06 19:31N 67°17' E 014°23'0 0.0
2014-Apr-06 18:33N 67°17' E 014°23'0 0.0
2014-Apr-06 17:32N 67°17' E 014°23'0 0.0
2014-Apr-06 16:32N 67°17' E 014°23'0 0.0
2014-Apr-06 15:31N 67°17' E 014°23'0 0.0
2014-Apr-06 14:33N 67°17' E 014°23'0 0.0
2014-Apr-06 13:30N 67°17' E 014°23'0 0.0
2014-Apr-06 12:31N 67°17' E 014°23'0 0.0
2014-Apr-06 11:31N 67°17' E 014°23'0 0.0
2014-Apr-06 10:33N 67°17' E 014°23'0 0.0
2014-Apr-06 09:33N 67°17' E 014°23'0 0.0
2014-Apr-06 08:32N 67°17' E 014°23'0 0.0
2014-Apr-06 07:31N 67°17' E 014°23'0 0.0
2014-Apr-06 06:31N 67°17' E 014°23'0 0.0
2014-Apr-06 05:33N 67°17' E 014°23'0 0.0
2014-Apr-06 04:33N 67°17' E 014°23'0 0.0
2014-Apr-06 03:32N 67°17' E 014°23'0 0.0
2014-Apr-06 02:31N 67°17' E 014°23'0 0.0
2014-Apr-06 01:33N 67°17' E 014°23'0 0.0
2014-Apr-06 00:33N 67°17' E 014°23'0 0.0
2014-Apr-05 23:32N 67°17' E 014°23'0 0.0
2014-Apr-05 22:28N 67°17' E 014°23'0 0.0
2014-Apr-05 21:31N 67°17' E 014°23'0 0.0
2014-Apr-05 20:33N 67°17' E 014°23'0 0.0
2014-Apr-05 19:33N 67°17' E 014°23'0 0.0
2014-Apr-05 18:32N 67°17' E 014°23'0 0.0
2014-Apr-05 17:31N 67°17' E 014°23'0 0.0
2014-Apr-05 16:31N 67°17' E 014°23'0 0.0
2014-Apr-05 15:33N 67°17' E 014°23'0 0.0
2014-Apr-05 14:33N 67°17' E 014°23'0 0.0
2014-Apr-05 13:32N 67°17' E 014°23'0 0.0
2014-Apr-05 12:31N 67°17' E 014°23'0 0.0
2014-Apr-05 11:30N 67°17' E 014°23'0 0.0
2014-Apr-05 10:33N 67°17' E 014°23'0 0.0
2014-Apr-05 09:32N 67°17' E 014°23'0 0.0
2014-Apr-05 08:31N 67°17' E 014°23'0 0.0
2014-Apr-05 07:33N 67°17' E 014°23'0 0.0
2014-Apr-05 06:32N 67°17' E 014°23'0 0.0
2014-Apr-05 05:32N 67°17' E 014°23'0 0.0
2014-Apr-05 04:32N 67°17' E 014°23'0 0.0
2014-Apr-05 03:31N 67°17' E 014°23'0 0.0
2014-Apr-05 02:33N 67°17' E 014°23'0 0.0
2014-Apr-05 01:33N 67°17' E 014°23'0 0.0
2014-Apr-05 00:32N 67°17' E 014°23'0 0.0
2014-Apr-04 23:32N 67°17' E 014°23'0 0.0
2014-Apr-04 22:31N 67°17' E 014°23'0 0.0
2014-Apr-04 21:33N 67°17' E 014°23'0 0.0
2014-Apr-04 20:33N 67°17' E 014°23'0 0.0
2014-Apr-04 19:32N 67°17' E 014°23'0 0.0
2014-Apr-04 18:32N 67°17' E 014°23'0 0.0
2014-Apr-04 17:33N 67°17' E 014°23'0 0.0
2014-Apr-04 16:33N 67°17' E 014°23'0 0.0
2014-Apr-04 15:32N 67°17' E 014°23'0 0.0
2014-Apr-04 14:31N 67°17' E 014°23'0 0.0
2014-Apr-04 13:31N 67°17' E 014°23'0 0.0
2014-Apr-04 12:31N 67°17' E 014°23'0 0.0
2014-Apr-04 11:31N 67°17' E 014°23'0 0.0
2014-Apr-04 10:30N 67°17' E 014°23'0 0.0
2014-Apr-04 09:32N 67°17' E 014°23'0 0.0
2014-Apr-04 08:32N 67°17' E 014°23'0 0.0
2014-Apr-04 07:33N 67°17' E 014°23'0 0.0
2014-Apr-04 06:31N 67°17' E 014°23'0 0.0
2014-Apr-04 05:31N 67°17' E 014°23'0 0.0
2014-Apr-04 04:30N 67°17' E 014°23'0 0.0
2014-Apr-04 03:32N 67°17' E 014°23'0 0.0
2014-Apr-04 02:29N 67°17' E 014°23'0 0.0
2014-Apr-04 01:33N 67°17' E 014°23'0 0.0
2014-Apr-04 00:32N 67°17' E 014°23'0 0.0
2014-Apr-03 23:32N 67°17' E 014°23'0 0.0
2014-Apr-03 22:31N 67°17' E 014°23'0 0.0
2014-Apr-03 21:33N 67°17' E 014°23'0 0.0
2014-Apr-03 20:33N 67°17' E 014°23'0 0.0
2014-Apr-03 19:32N 67°17' E 014°23'0 0.0
2014-Apr-03 18:32N 67°17' E 014°23'0 0.0
2014-Apr-03 17:31N 67°17' E 014°23'0 0.0
2014-Apr-03 16:33N 67°17' E 014°23'0 0.0
2014-Apr-03 15:33N 67°17' E 014°23'0 0.0
2014-Apr-03 14:32N 67°17' E 014°23'0 0.0
2014-Apr-03 13:32N 67°17' E 014°23'0 0.0
2014-Apr-03 12:33N 67°17' E 014°23'0 0.0
2014-Apr-03 11:32N 67°17' E 014°23'0 0.0
2014-Apr-03 10:32N 67°17' E 014°23'0 0.0
2014-Apr-03 09:28N 67°17' E 014°23'0 0.0
2014-Apr-03 08:33N 67°17' E 014°23'0 0.0
2014-Apr-03 07:30N 67°17' E 014°23'0 0.0
2014-Apr-03 06:28N 67°17' E 014°23'0 0.0
2014-Apr-03 05:31N 67°17' E 014°23'0 0.0
2014-Apr-03 04:33N 67°17' E 014°23'0 0.0
2014-Apr-03 03:33N 67°17' E 014°23'0 0.0
2014-Apr-03 02:32N 67°17' E 014°23'0 0.0
2014-Apr-03 01:33N 67°17' E 014°23'0 0.0
2014-Apr-03 00:26N 67°17' E 014°23'0 0.0
2014-Apr-02 23:32N 67°17' E 014°23'0 0.0
2014-Apr-02 22:31N 67°17' E 014°23'0 0.0
2014-Apr-02 21:30N 67°17' E 014°23'0 0.0
2014-Apr-02 20:30N 67°17' E 014°23'0 0.0
2014-Apr-02 19:32N 67°17' E 014°23'0 0.0
2014-Apr-02 18:29N 67°17' E 014°23'0 0.0
2014-Apr-02 17:31N 67°17' E 014°23'0 0.0
2014-Apr-02 16:31N 67°17' E 014°23'0 0.0
2014-Apr-02 15:33N 67°17' E 014°23'0 0.0
2014-Apr-02 14:33N 67°17' E 014°23'0 0.0
2014-Apr-02 13:32N 67°17' E 014°23'0 0.0
2014-Apr-02 12:31N 67°17' E 014°23'0 0.0
2014-Apr-02 11:33N 67°17' E 014°23'0 0.0
2014-Apr-02 10:33N 67°17' E 014°23'0 0.0
2014-Apr-02 09:32N 67°17' E 014°23'0 0.0
2014-Apr-02 08:31N 67°17' E 014°23'0 0.0
2014-Apr-02 07:31N 67°17' E 014°23'0 0.0
2014-Apr-02 06:32N 67°17' E 014°23'0 0.0
2014-Apr-02 05:31N 67°17' E 014°23'0 0.0
2014-Apr-02 04:33N 67°17' E 014°23'0 0.0
2014-Apr-02 03:33N 67°17' E 014°23'0 0.0
2014-Apr-02 02:33N 67°17' E 014°23'0 0.0
2014-Apr-02 01:32N 67°17' E 014°23'0 0.0
2014-Apr-02 00:28N 67°17' E 014°23'0 0.0
2014-Apr-01 23:33N 67°17' E 014°23'0 0.0
2014-Apr-01 22:33N 67°17' E 014°23'0 0.0
2014-Apr-01 21:32N 67°17' E 014°23'0 0.0
2014-Apr-01 20:32N 67°17' E 014°23'0 0.0
2014-Apr-01 19:31N 67°17' E 014°23'0 0.0
2014-Apr-01 18:32N 67°17' E 014°23'0 0.0
2014-Apr-01 17:32N 67°17' E 014°23'0 0.0
2014-Apr-01 16:32N 67°17' E 014°23'0 0.0
2014-Apr-01 15:25N 67°17' E 014°23'0 0.0
2014-Apr-01 14:30N 67°17' E 014°23'0 0.0
2014-Apr-01 13:33N 67°17' E 014°23'0 0.0
2014-Apr-01 12:33N 67°17' E 014°23'0 0.0
2014-Apr-01 11:33N 67°17' E 014°23'0 0.0
2014-Apr-01 10:32N 67°17' E 014°23'0 0.0
2014-Apr-01 09:31N 67°17' E 014°23'0 0.0
2014-Apr-01 08:31N 67°17' E 014°23'0 0.0
2014-Apr-01 07:30N 67°17' E 014°23'0 0.0
2014-Apr-01 06:33N 67°17' E 014°23'0 0.0
2014-Apr-01 05:30N 67°17' E 014°23'0 0.0
2014-Apr-01 04:32N 67°17' E 014°23'0 0.0
2014-Apr-01 03:32N 67°17' E 014°23'0 0.0
2014-Apr-01 02:33N 67°17' E 014°23'0 0.0
2014-Apr-01 01:32N 67°17' E 014°23'0 0.0
2014-Apr-01 00:28N 67°17' E 014°23'0 0.0
2014-Mar-31 23:31N 67°17' E 014°23'0 0.0
2014-Mar-31 22:30N 67°17' E 014°23'0 0.0
2014-Mar-31 21:33N 67°17' E 014°23'0 0.0
2014-Mar-31 20:32N 67°17' E 014°23'0 0.0
2014-Mar-31 19:32N 67°17' E 014°23'0 0.0
2014-Mar-31 18:31N 67°17' E 014°23'0 0.0
2014-Mar-31 17:31N 67°17' E 014°23'  

Dump ship's entire track history

sailing weather and tide predictions

Gamle Salten — LCQT — position and weather